Eure, North Carolina
Current Conditions -  °F | °C
As of 3:35 PM on Saturday 20 Dec 2014 (Local Time) from KFKN Reporting Station
Overcast Overcast  
Wind Chill: 39°   Ceiling: 4900
Heat Index: 39°   Visibility: 10mi
Dew Point: 28°   Wind: 0mph
Humidity: 65%   Direction: NA
Pressure: 30.27"   Gusts: NA
Location:  36.43°N, 76.85°W
Report Text: KFKN 202035Z AUTO 00000KT 10SM OVC049 04/M02 A3027 RMK AO1
Loading
Personal Weather Stations






























Interactive Weather Map New forecast layout! Learn more

10-Day Weather Forecast

Advertisements
Track Severe Weather on mobile